Time,TemperatureF,DewpointF,PressureIn,WindDirection,WindDirectionDegrees,WindSpeedMPH,WindSpeedGustMPH,Humidity,HourlyPrecipIn,Conditions,Clouds,dailyrainin,SoftwareType,DateUTC
2013-06-02 00:01:00,57.0,23.0,-100.00,East,90,1.0,5.0,27,0.00,,,0.00,,2013-06-02 07:01:00,
2013-06-02 00:11:00,57.0,23.0,-100.00,East,90,1.0,5.0,27,0.00,,,0.00,,2013-06-02 07:11:00,
2013-06-02 00:32:00,53.0,25.0,-100.00,SE,143,2.0,3.0,34,0.00,,,0.00,,2013-06-02 07:32:00,
2013-06-02 00:42:00,53.0,25.0,-100.00,SE,143,2.0,3.0,34,0.00,,,0.00,,2013-06-02 07:42:00,
2013-06-02 00:52:00,53.0,25.0,-100.00,SE,143,2.0,3.0,34,0.00,,,0.00,,2013-06-02 07:52:00,
2013-06-02 01:01:00,53.0,25.0,-100.00,SE,143,2.0,3.0,34,0.00,,,0.00,,2013-06-02 08:01:00,
2013-06-02 01:11:00,53.0,25.0,-100.00,SE,143,2.0,3.0,34,0.00,,,0.00,,2013-06-02 08:11:00,
2013-06-02 01:32:00,50.0,24.0,-100.00,ESE,118,2.0,3.0,36,0.00,,,0.00,,2013-06-02 08:32:00,
2013-06-02 01:52:00,50.0,24.0,-100.00,ESE,118,2.0,3.0,36,0.00,,,0.00,,2013-06-02 08:52:00,
2013-06-02 02:01:00,50.0,24.0,-100.00,ESE,118,2.0,3.0,36,0.00,,,0.00,,2013-06-02 09:01:00,
2013-06-02 02:11:00,50.0,24.0,-100.00,ESE,118,2.0,3.0,36,0.00,,,0.00,,2013-06-02 09:11:00,
2013-06-02 02:33:00,48.0,23.0,-100.00,ESE,106,2.0,3.0,37,0.00,,,0.00,,2013-06-02 09:33:00,
2013-06-02 02:53:00,48.0,23.0,-100.00,ESE,106,2.0,3.0,37,0.00,,,0.00,,2013-06-02 09:53:00,
2013-06-02 03:02:00,48.0,23.0,-100.00,ESE,106,2.0,3.0,37,0.00,,,0.00,,2013-06-02 10:02:00,
2013-06-02 03:12:00,48.0,23.0,-100.00,ESE,106,2.0,3.0,37,0.00,,,0.00,,2013-06-02 10:12:00,
2013-06-02 03:33:00,47.0,23.0,-100.00,East,82,1.0,2.0,38,0.00,,,0.00,,2013-06-02 10:33:00,
2013-06-02 03:42:00,47.0,23.0,-100.00,East,82,1.0,2.0,38,0.00,,,0.00,,2013-06-02 10:42:00,
2013-06-02 03:52:00,47.0,23.0,-100.00,East,82,1.0,2.0,38,0.00,,,0.00,,2013-06-02 10:52:00,
2013-06-02 04:02:00,47.0,23.0,-100.00,East,82,1.0,2.0,38,0.00,,,0.00,,2013-06-02 11:02:00,
2013-06-02 04:11:00,47.0,23.0,-100.00,East,82,1.0,2.0,38,0.00,,,0.00,,2013-06-02 11:11:00,
2013-06-02 04:32:00,46.0,21.0,-100.00,ESE,104,1.0,2.0,37,0.00,,,0.00,,2013-06-02 11:32:00,
2013-06-02 04:42:00,46.0,21.0,-100.00,ESE,104,1.0,2.0,37,0.00,,,0.00,,2013-06-02 11:42:00,
2013-06-02 04:52:00,46.0,21.0,-100.00,ESE,104,1.0,2.0,37,0.00,,,0.00,,2013-06-02 11:52:00,
2013-06-02 05:01:00,46.0,21.0,-100.00,ESE,104,1.0,2.0,37,0.00,,,0.00,,2013-06-02 12:01:00,
2013-06-02 05:11:00,46.0,21.0,-100.00,ESE,104,1.0,2.0,37,0.00,,,0.00,,2013-06-02 12:11:00,
2013-06-02 05:32:00,46.0,25.0,-100.00,ESE,116,1.0,3.0,44,0.00,,,0.00,,2013-06-02 12:32:00,
2013-06-02 05:42:00,46.0,25.0,-100.00,ESE,116,1.0,3.0,44,0.00,,,0.00,,2013-06-02 12:42:00,
2013-06-02 05:52:00,46.0,25.0,-100.00,ESE,116,1.0,3.0,44,0.00,,,0.00,,2013-06-02 12:52:00,
2013-06-02 06:01:00,46.0,25.0,-100.00,ESE,116,1.0,3.0,44,0.00,,,0.00,,2013-06-02 13:01:00,
2013-06-02 06:11:00,46.0,25.0,-100.00,ESE,116,1.0,3.0,44,0.00,,,0.00,,2013-06-02 13:11:00,
2013-06-02 06:42:00,47.0,27.0,-100.00,ESE,107,2.0,3.0,45,0.00,,,0.00,,2013-06-02 13:42:00,
2013-06-02 06:52:00,47.0,27.0,-100.00,ESE,107,2.0,3.0,45,0.00,,,0.00,,2013-06-02 13:52:00,
2013-06-02 07:01:00,47.0,27.0,-100.00,ESE,107,2.0,3.0,45,0.00,,,0.00,,2013-06-02 14:01:00,
2013-06-02 07:11:00,47.0,27.0,-100.00,ESE,107,2.0,3.0,45,0.00,,,0.00,,2013-06-02 14:11:00,
2013-06-02 07:32:00,63.0,40.0,-100.00,ESE,120,1.0,4.0,42,0.00,,,0.00,,2013-06-02 14:32:00,
2013-06-02 08:33:00,75.0,31.0,-100.00,South,178,4.0,16.0,20,0.00,,,-99.99,,2013-06-02 15:33:00,
2013-06-02 08:53:00,75.0,31.0,-100.00,South,178,4.0,16.0,20,0.00,,,-99.99,,2013-06-02 15:53:00,
2013-06-02 09:03:00,75.0,31.0,-100.00,South,178,4.0,16.0,20,0.00,,,-99.99,,2013-06-02 16:03:00,
2013-06-02 09:13:00,75.0,31.0,-100.00,South,178,4.0,16.0,20,0.00,,,-99.99,,2013-06-02 16:13:00,
2013-06-02 09:33:00,77.0,32.0,-100.00,SW,232,5.0,16.0,19,0.00,,,0.00,,2013-06-02 16:33:00,
2013-06-02 09:42:00,77.0,32.0,-100.00,SW,232,5.0,16.0,19,0.00,,,0.00,,2013-06-02 16:42:00,
2013-06-02 09:52:00,77.0,32.0,-100.00,SW,232,5.0,16.0,19,0.00,,,0.00,,2013-06-02 16:52:00,
2013-06-02 10:02:00,77.0,32.0,-100.00,SW,232,5.0,16.0,19,0.00,,,0.00,,2013-06-02 17:02:00,
2013-06-02 10:12:00,77.0,32.0,-100.00,SW,232,5.0,16.0,19,0.00,,,0.00,,2013-06-02 17:12:00,
2013-06-02 10:32:00,79.0,29.0,-100.00,South,173,7.0,14.0,16,0.00,,,0.00,,2013-06-02 17:32:00,
2013-06-02 10:42:00,79.0,29.0,-100.00,South,173,7.0,14.0,16,0.00,,,0.00,,2013-06-02 17:42:00,
2013-06-02 10:52:00,79.0,29.0,-100.00,South,173,7.0,14.0,16,0.00,,,0.00,,2013-06-02 17:52:00,
2013-06-02 11:01:00,79.0,29.0,-100.00,South,173,7.0,14.0,16,0.00,,,0.00,,2013-06-02 18:01:00,
2013-06-02 11:11:00,79.0,29.0,-100.00,South,173,7.0,14.0,16,0.00,,,0.00,,2013-06-02 18:11:00,
2013-06-02 11:32:00,79.0,24.0,-100.00,WSW,240,9.0,19.0,13,0.00,,,0.00,,2013-06-02 18:32:00,
2013-06-02 11:42:00,79.0,24.0,-100.00,WSW,240,9.0,19.0,13,0.00,,,0.00,,2013-06-02 18:42:00,
2013-06-02 11:52:00,79.0,24.0,-100.00,WSW,240,9.0,19.0,13,0.00,,,0.00,,2013-06-02 18:52:00,
2013-06-02 12:01:00,79.0,24.0,-100.00,WSW,240,9.0,19.0,13,0.00,,,0.00,,2013-06-02 19:01:00,
2013-06-02 12:11:00,79.0,24.0,-100.00,WSW,240,9.0,19.0,13,0.00,,,0.00,,2013-06-02 19:11:00,
2013-06-02 12:32:00,81.0,26.0,-100.00,SSW,212,9.0,19.0,13,0.00,,,0.00,,2013-06-02 19:32:00,
2013-06-02 12:42:00,81.0,26.0,-100.00,SSW,212,9.0,19.0,13,0.00,,,0.00,,2013-06-02 19:42:00,
2013-06-02 12:52:00,81.0,26.0,-100.00,SSW,212,9.0,19.0,13,0.00,,,0.00,,2013-06-02 19:52:00,
2013-06-02 13:02:00,81.0,26.0,-100.00,SSW,212,9.0,19.0,13,0.00,,,0.00,,2013-06-02 20:02:00,
2013-06-02 13:11:00,81.0,26.0,-100.00,SSW,212,9.0,19.0,13,0.00,,,0.00,,2013-06-02 20:11:00,
2013-06-02 13:32:00,82.0,26.0,-100.00,WSW,245,7.0,22.0,13,0.00,,,0.00,,2013-06-02 20:32:00,
2013-06-02 13:42:00,82.0,26.0,-100.00,WSW,245,7.0,22.0,13,0.00,,,0.00,,2013-06-02 20:42:00,
2013-06-02 13:52:00,82.0,26.0,-100.00,WSW,245,7.0,22.0,13,0.00,,,0.00,,2013-06-02 20:52:00,
2013-06-02 14:01:00,82.0,26.0,-100.00,WSW,245,7.0,22.0,13,0.00,,,0.00,,2013-06-02 21:01:00,
2013-06-02 14:11:00,82.0,26.0,-100.00,WSW,245,7.0,22.0,13,0.00,,,0.00,,2013-06-02 21:11:00,
2013-06-02 14:33:00,82.0,22.0,-100.00,SSW,196,9.0,21.0,11,0.00,,,0.00,,2013-06-02 21:33:00,
2013-06-02 14:42:00,82.0,22.0,-100.00,SSW,196,9.0,21.0,11,0.00,,,0.00,,2013-06-02 21:42:00,
2013-06-02 14:53:00,82.0,22.0,-100.00,SSW,196,9.0,21.0,11,0.00,,,0.00,,2013-06-02 21:53:00,
2013-06-02 15:03:00,82.0,22.0,-100.00,SSW,196,9.0,21.0,11,0.00,,,0.00,,2013-06-02 22:03:00,
2013-06-02 15:12:00,82.0,22.0,-100.00,SSW,196,9.0,21.0,11,0.00,,,0.00,,2013-06-02 22:12:00,
2013-06-02 15:33:00,83.0,23.0,-100.00,SW,218,7.0,23.0,11,0.00,,,0.00,,2013-06-02 22:33:00,
2013-06-02 15:42:00,83.0,23.0,-100.00,SW,218,7.0,23.0,11,0.00,,,0.00,,2013-06-02 22:42:00,
2013-06-02 15:52:00,83.0,23.0,-100.00,SW,218,7.0,23.0,11,0.00,,,0.00,,2013-06-02 22:52:00,
2013-06-02 16:02:00,83.0,23.0,-100.00,SW,218,7.0,23.0,11,0.00,,,0.00,,2013-06-02 23:02:00,
2013-06-02 16:12:00,83.0,23.0,-100.00,SW,218,7.0,23.0,11,0.00,,,0.00,,2013-06-02 23:12:00,
2013-06-02 16:32:00,83.0,23.0,-100.00,WSW,238,8.0,24.0,11,0.00,,,0.00,,2013-06-02 23:32:00,
2013-06-02 16:42:00,83.0,23.0,-100.00,WSW,238,8.0,24.0,11,0.00,,,0.00,,2013-06-02 23:42:00,
2013-06-02 16:52:00,83.0,23.0,-100.00,WSW,238,8.0,24.0,11,0.00,,,0.00,,2013-06-02 23:52:00,
2013-06-02 17:01:00,83.0,23.0,-100.00,WSW,238,8.0,24.0,11,0.00,,,0.00,,2013-06-03 00:01:00,
2013-06-02 17:11:00,83.0,23.0,-100.00,WSW,238,8.0,24.0,11,0.00,,,0.00,,2013-06-03 00:11:00,
2013-06-02 18:32:00,79.0,26.0,-100.00,SW,234,7.0,20.0,14,-99.99,,,0.00,,2013-06-03 01:32:00,
2013-06-02 18:42:00,79.0,26.0,-100.00,SW,234,7.0,20.0,14,-99.99,,,0.00,,2013-06-03 01:42:00,
2013-06-02 18:52:00,79.0,26.0,-100.00,SW,234,7.0,20.0,14,-99.99,,,0.00,,2013-06-03 01:52:00,
2013-06-02 19:02:00,79.0,26.0,-100.00,SW,234,7.0,20.0,14,-99.99,,,0.00,,2013-06-03 02:02:00,
2013-06-02 19:12:00,79.0,26.0,-100.00,SW,234,7.0,20.0,14,-99.99,,,0.00,,2013-06-03 02:12:00,
2013-06-02 19:32:00,75.0,27.0,-100.00,SW,220,5.0,18.0,17,0.00,,,0.00,,2013-06-03 02:32:00,
2013-06-02 19:42:00,75.0,27.0,-100.00,SW,220,5.0,18.0,17,0.00,,,0.00,,2013-06-03 02:42:00,
2013-06-02 19:52:00,75.0,27.0,-100.00,SW,220,5.0,18.0,17,0.00,,,0.00,,2013-06-03 02:52:00,
2013-06-02 20:02:00,75.0,27.0,-100.00,SW,220,5.0,18.0,17,0.00,,,0.00,,2013-06-03 03:02:00,
2013-06-02 20:12:00,75.0,27.0,-100.00,SW,220,5.0,18.0,17,0.00,,,0.00,,2013-06-03 03:12:00,
2013-06-02 20:33:00,70.0,27.0,-100.00,South,174,3.0,15.0,20,0.00,,,0.00,,2013-06-03 03:33:00,
2013-06-02 20:43:00,70.0,27.0,-100.00,South,174,3.0,15.0,20,0.00,,,0.00,,2013-06-03 03:43:00,
2013-06-02 20:53:00,70.0,27.0,-100.00,South,174,3.0,15.0,20,0.00,,,0.00,,2013-06-03 03:53:00,
2013-06-02 21:02:00,70.0,27.0,-100.00,South,174,3.0,15.0,20,0.00,,,0.00,,2013-06-03 04:02:00,
2013-06-02 21:12:00,70.0,27.0,-100.00,South,174,3.0,15.0,20,0.00,,,0.00,,2013-06-03 04:12:00,
2013-06-02 21:33:00,69.0,27.0,-100.00,South,178,4.0,11.0,21,0.00,,,0.00,,2013-06-03 04:33:00,
2013-06-02 21:42:00,69.0,27.0,-100.00,South,178,4.0,11.0,21,0.00,,,0.00,,2013-06-03 04:42:00,
2013-06-02 21:53:00,69.0,27.0,-100.00,South,178,4.0,11.0,21,0.00,,,0.00,,2013-06-03 04:53:00,
2013-06-02 22:02:00,69.0,27.0,-100.00,South,178,4.0,11.0,21,0.00,,,0.00,,2013-06-03 05:02:00,
2013-06-02 22:12:00,69.0,27.0,-100.00,South,178,4.0,11.0,21,0.00,,,0.00,,2013-06-03 05:12:00,
2013-06-02 22:32:00,68.0,27.0,-100.00,SSW,192,5.0,11.0,21,0.00,,,-99.99,,2013-06-03 05:32:00,
2013-06-02 22:43:00,68.0,27.0,-100.00,SSW,192,5.0,11.0,21,0.00,,,-99.99,,2013-06-03 05:43:00,
2013-06-02 22:52:00,68.0,27.0,-100.00,SSW,192,5.0,11.0,21,0.00,,,-99.99,,2013-06-03 05:52:00,
2013-06-02 23:02:00,68.0,27.0,-100.00,SSW,192,5.0,11.0,21,0.00,,,-99.99,,2013-06-03 06:02:00,
2013-06-02 23:12:00,68.0,27.0,-100.00,SSW,192,5.0,11.0,21,0.00,,,-99.99,,2013-06-03 06:12:00,
2013-06-02 23:32:00,66.0,27.0,-100.00,South,185,4.0,10.0,23,0.00,,,0.00,,2013-06-03 06:32:00,
2013-06-02 23:42:00,66.0,27.0,-100.00,South,185,4.0,10.0,23,0.00,,,0.00,,2013-06-03 06:42:00,
2013-06-02 23:52:00,66.0,27.0,-100.00,South,185,4.0,10.0,23,0.00,,,0.00,,2013-06-03 06:52:00,